Time;durP1;ratioP1;P1;durP2;ratioP2;P2;SDS_P1;SDS_P2;PMS_P1;PMS_P2;Temp;Humidity;BMP_temperature;BMP_pressure;BME280_temperature;BME280_humidity;BME280_pressure;Samples;Min_cycle;Max_cycle;Signal;HPM_P1;HPM_P2
2023/04/24 00:01:00;;;;;;;5.03;4.55;;;;;;;;;;5043998;28;20729;-52
2023/04/24 00:03:27;;;;;;;4.30;3.88;;;;;;;;;;5043939;28;20327;-51
2023/04/24 00:05:54;;;;;;;4.40;4.00;;;;;;;;;;5045174;28;20228;-52
2023/04/24 00:08:23;;;;;;;4.70;4.25;;;;;;;;;;5041534;28;20232;-51
2023/04/24 00:10:50;;;;;;;4.63;4.25;;;;;;;;;;5040270;28;20286;-53
2023/04/24 00:13:16;;;;;;;5.32;4.63;;;;;;;;;;5042266;28;20235;-56
2023/04/24 00:15:43;;;;;;;4.95;4.47;;;;;;;;;;5037249;28;20239;-53
2023/04/24 00:18:09;;;;;;;4.78;4.35;;;;;;;;;;5044127;28;20574;-52
2023/04/24 00:20:36;;;;;;;4.20;3.80;;;;;;;;;;5042446;28;20231;-50
2023/04/24 00:23:03;;;;;;;4.32;3.92;;;;;;;;;;5043646;28;20228;-51
2023/04/24 00:25:31;;;;;;;3.88;3.58;;;;;;;;;;5043025;28;20227;-51
2023/04/24 00:27:58;;;;;;;4.97;4.47;;;;;;;;;;5042852;28;20239;-53
2023/04/24 00:30:24;;;;;;;5.05;4.35;;;;;;;;;;5044667;28;20232;-52
2023/04/24 00:32:51;;;;;;;4.20;3.85;;;;;;;;;;5042570;28;20298;-53
2023/04/24 00:35:19;;;;;;;4.63;3.97;;;;;;;;;;5044161;28;20236;-50
2023/04/24 00:37:46;;;;;;;4.68;4.20;;;;;;;;;;5039200;28;20322;-51
2023/04/24 00:40:12;;;;;;;4.72;4.32;;;;;;;;;;5036714;28;20311;-53
2023/04/24 00:42:41;;;;;;;5.50;4.43;;;;;;;;;;5039471;28;20800;-53
2023/04/24 00:45:08;;;;;;;4.35;4.05;;;;;;;;;;5042994;28;20610;-53
2023/04/24 00:47:35;;;;;;;5.78;3.75;;;;;;;;;;5041111;28;20228;-50
2023/04/24 00:50:02;;;;;;;4.20;3.90;;;;;;;;;;5042711;28;20236;-51
2023/04/24 00:52:30;;;;;;;4.13;3.83;;;;;;;;;;5038173;28;20224;-51
2023/04/24 00:54:59;;;;;;;4.68;4.28;;;;;;;;;;5041977;28;20232;-51
2023/04/24 00:57:26;;;;;;;5.00;4.32;;;;;;;;;;5040396;28;20239;-50
2023/04/24 00:59:54;;;;;;;5.28;4.60;;;;;;;;;;5042476;28;20240;-50
2023/04/24 01:02:22;;;;;;;5.03;4.47;;;;;;;;;;5037554;28;20309;-51
2023/04/24 01:04:50;;;;;;;4.57;4.18;;;;;;;;;;5036987;28;20798;-53
2023/04/24 01:07:18;;;;;;;5.28;4.78;;;;;;;;;;5036192;28;20239;-53
2023/04/24 01:09:47;;;;;;;5.03;4.50;;;;;;;;;;5035623;28;20285;-52
2023/04/24 01:12:13;;;;;;;4.18;3.88;;;;;;;;;;5043534;28;20240;-53
2023/04/24 01:14:40;;;;;;;5.22;4.68;;;;;;;;;;5045099;28;20314;-51
2023/04/24 01:17:09;;;;;;;5.35;4.95;;;;;;;;;;5047241;28;20231;-51
2023/04/24 01:19:35;;;;;;;5.18;4.68;;;;;;;;;;5045457;28;20225;-52
2023/04/24 01:22:03;;;;;;;5.07;4.57;;;;;;;;;;5053720;28;20563;-51
2023/04/24 01:24:31;;;;;;;6.45;4.15;;;;;;;;;;5044254;28;20256;-51
2023/04/24 01:26:58;;;;;;;4.90;4.50;;;;;;;;;;5048540;28;20240;-50
2023/04/24 01:29:25;;;;;;;5.28;4.88;;;;;;;;;;5044024;28;20235;-59
2023/04/24 01:31:51;;;;;;;4.35;3.95;;;;;;;;;;5044743;28;20243;-51
2023/04/24 01:34:18;;;;;;;5.07;4.40;;;;;;;;;;5044587;28;20258;-51
2023/04/24 01:36:46;;;;;;;6.97;5.00;;;;;;;;;;5041984;28;20236;-52
2023/04/24 01:39:13;;;;;;;4.63;4.22;;;;;;;;;;5047384;28;20306;-53
2023/04/24 01:41:41;;;;;;;5.57;5.13;;;;;;;;;;5044470;28;20241;-52
2023/04/24 01:44:08;;;;;;;4.78;4.38;;;;;;;;;;5046053;28;20232;-53
2023/04/24 01:46:35;;;;;;;4.90;4.50;;;;;;;;;;5047797;28;20235;-52
2023/04/24 01:49:02;;;;;;;5.35;4.93;;;;;;;;;;5042328;28;20889;-51
2023/04/24 01:51:29;;;;;;;5.80;5.25;;;;;;;;;;5044774;28;20236;-52
2023/04/24 01:53:56;;;;;;;5.65;5.10;;;;;;;;;;5048816;28;20228;-56
2023/04/24 01:56:23;;;;;;;6.03;4.70;;;;;;;;;;5048432;28;20259;-52
2023/04/24 01:58:51;;;;;;;6.78;5.38;;;;;;;;;;5040076;28;20240;-52
2023/04/24 02:01:19;;;;;;;5.78;4.65;;;;;;;;;;5047352;28;20243;-53
2023/04/24 02:03:46;;;;;;;6.25;5.65;;;;;;;;;;5044759;28;21928;-52
2023/04/24 02:06:13;;;;;;;6.03;5.45;;;;;;;;;;5044356;28;20310;-52
2023/04/24 02:08:39;;;;;;;5.13;4.72;;;;;;;;;;5041792;28;20254;-52
2023/04/24 02:11:06;;;;;;;5.82;4.40;;;;;;;;;;5034335;28;20237;-51
2023/04/24 02:13:33;;;;;;;5.38;4.97;;;;;;;;;;5041517;28;20729;-51
2023/04/24 02:16:01;;;;;;;6.05;5.55;;;;;;;;;;5035350;28;20286;-52
2023/04/24 02:18:27;;;;;;;5.68;5.18;;;;;;;;;;5031211;28;20291;-51
2023/04/24 02:20:54;;;;;;;4.97;4.68;;;;;;;;;;5041825;28;20353;-51
2023/04/24 02:23:21;;;;;;;6.97;6.38;;;;;;;;;;5043632;28;20248;-57
2023/04/24 02:25:47;;;;;;;8.50;6.00;;;;;;;;;;5042619;28;20263;-56
2023/04/24 02:28:14;;;;;;;5.43;4.30;;;;;;;;;;5043652;28;20236;-52
2023/04/24 02:30:41;;;;;;;5.30;4.90;;;;;;;;;;5047886;28;20692;-52
2023/04/24 02:33:09;;;;;;;5.47;4.97;;;;;;;;;;5047229;28;20232;-58
2023/04/24 02:35:35;;;;;;;6.40;5.80;;;;;;;;;;5045597;28;20319;-53
2023/04/24 02:38:02;;;;;;;5.63;5.22;;;;;;;;;;5048746;28;20232;-53
2023/04/24 02:40:29;;;;;;;6.80;5.47;;;;;;;;;;5049944;28;20247;-54
2023/04/24 02:42:56;;;;;;;5.75;5.18;;;;;;;;;;5051617;28;20251;-53
2023/04/24 02:45:22;;;;;;;5.00;4.60;;;;;;;;;;5046369;28;20224;-51
2023/04/24 02:47:49;;;;;;;6.18;5.60;;;;;;;;;;5054216;28;20228;-54
2023/04/24 02:50:17;;;;;;;6.90;6.30;;;;;;;;;;5046039;28;20328;-52
2023/04/24 02:52:44;;;;;;;6.75;6.15;;;;;;;;;;5038583;28;20326;-53
2023/04/24 02:55:11;;;;;;;5.20;4.80;;;;;;;;;;5046906;28;20311;-51
2023/04/24 02:57:37;;;;;;;7.20;6.22;;;;;;;;;;5041866;28;20938;-51
2023/04/24 03:00:06;;;;;;;5.97;5.47;;;;;;;;;;5045158;28;20314;-51
2023/04/24 03:02:33;;;;;;;5.78;5.25;;;;;;;;;;5042181;28;20243;-51
2023/04/24 03:05:00;;;;;;;6.05;5.47;;;;;;;;;;5041582;28;20235;-53
2023/04/24 03:07:28;;;;;;;6.15;5.55;;;;;;;;;;5044660;28;20236;-51
2023/04/24 03:09:57;;;;;;;5.63;5.13;;;;;;;;;;5040982;28;20254;-51
2023/04/24 03:12:24;;;;;;;6.78;4.78;;;;;;;;;;5043675;28;20235;-53
2023/04/24 03:14:50;;;;;;;5.82;5.32;;;;;;;;;;5043257;28;20280;-53
2023/04/24 03:17:17;;;;;;;5.53;5.03;;;;;;;;;;5042166;28;20235;-51
2023/04/24 03:19:44;;;;;;;6.10;5.50;;;;;;;;;;5039876;28;20231;-52
2023/04/24 03:22:11;;;;;;;6.05;5.55;;;;;;;;;;5042837;28;20238;-51
2023/04/24 03:24:40;;;;;;;5.97;5.47;;;;;;;;;;5044783;28;20520;-50
2023/04/24 03:27:06;;;;;;;5.55;5.15;;;;;;;;;;5041782;28;20511;-51
2023/04/24 03:29:33;;;;;;;6.20;5.70;;;;;;;;;;5042929;28;20251;-52
2023/04/24 03:32:00;;;;;;;5.97;4.60;;;;;;;;;;5046219;28;20298;-52
2023/04/24 03:34:27;;;;;;;5.10;4.70;;;;;;;;;;5043153;28;20736;-51
2023/04/24 03:36:53;;;;;;;7.05;6.18;;;;;;;;;;5043565;28;20232;-51
2023/04/24 03:39:20;;;;;;;6.57;5.45;;;;;;;;;;5045419;28;20726;-51
2023/04/24 03:41:48;;;;;;;6.78;6.18;;;;;;;;;;5045707;28;20623;-51
2023/04/24 03:44:14;;;;;;;5.50;5.00;;;;;;;;;;5043650;28;20234;-52
2023/04/24 03:46:41;;;;;;;5.90;5.32;;;;;;;;;;5041032;28;20808;-51
2023/04/24 03:49:08;;;;;;;5.38;4.97;;;;;;;;;;5044418;28;20290;-51
2023/04/24 03:51:35;;;;;;;5.15;4.72;;;;;;;;;;5044066;28;20246;-51
2023/04/24 03:54:01;;;;;;;5.32;4.93;;;;;;;;;;5045017;28;20315;-52
2023/04/24 03:56:28;;;;;;;5.43;4.93;;;;;;;;;;5042048;28;20234;-51
2023/04/24 03:58:56;;;;;;;5.78;5.30;;;;;;;;;;5045073;28;20323;-50
2023/04/24 04:01:23;;;;;;;5.80;5.20;;;;;;;;;;5042208;28;20247;-51
2023/04/24 04:03:50;;;;;;;6.55;5.95;;;;;;;;;;5039179;28;20239;-50
2023/04/24 04:06:18;;;;;;;5.65;5.15;;;;;;;;;;5046220;28;20307;-51
2023/04/24 04:08:44;;;;;;;4.93;4.47;;;;;;;;;;5035998;28;20291;-53
2023/04/24 04:11:11;;;;;;;5.85;5.35;;;;;;;;;;5044623;28;20318;-54
2023/04/24 04:13:37;;;;;;;8.65;4.30;;;;;;;;;;5041601;28;20236;-52
2023/04/24 04:16:06;;;;;;;5.10;4.60;;;;;;;;;;5043032;28;20232;-50
2023/04/24 04:18:33;;;;;;;5.15;4.75;;;;;;;;;;5043764;28;20285;-53
2023/04/24 04:21:01;;;;;;;4.82;4.43;;;;;;;;;;5045621;28;20232;-53
2023/04/24 04:23:27;;;;;;;5.63;5.13;;;;;;;;;;5050777;28;20254;-52
2023/04/24 04:25:54;;;;;;;4.80;4.32;;;;;;;;;;5043665;28;20279;-51
2023/04/24 04:28:21;;;;;;;4.60;4.25;;;;;;;;;;5039593;28;20254;-52
2023/04/24 04:30:48;;;;;;;5.75;5.15;;;;;;;;;;5041686;28;20239;-52
2023/04/24 04:33:16;;;;;;;5.25;4.85;;;;;;;;;;5039473;28;20611;-51
2023/04/24 04:35:42;;;;;;;4.85;4.38;;;;;;;;;;5040682;28;20237;-53
2023/04/24 04:38:10;;;;;;;5.63;5.13;;;;;;;;;;5041986;28;20234;-51
2023/04/24 04:40:37;;;;;;;5.35;4.95;;;;;;;;;;5049439;28;20238;-51
2023/04/24 04:43:03;;;;;;;5.63;5.05;;;;;;;;;;5039775;28;20278;-51
2023/04/24 04:45:30;;;;;;;5.47;4.97;;;;;;;;;;5044513;28;20235;-51
2023/04/24 04:47:57;;;;;;;4.93;4.53;;;;;;;;;;5045018;28;20310;-51
2023/04/24 04:50:25;;;;;;;5.78;5.18;;;;;;;;;;5042770;28;20232;-52
2023/04/24 04:52:51;;;;;;;5.65;5.15;;;;;;;;;;5040152;28;20236;-51
2023/04/24 04:55:19;;;;;;;5.45;4.82;;;;;;;;;;5043184;28;20292;-52
2023/04/24 04:57:46;;;;;;;6.15;5.38;;;;;;;;;;5040113;28;20246;-52
2023/04/24 05:00:13;;;;;;;6.00;5.47;;;;;;;;;;5042859;28;20228;-52
2023/04/24 05:02:40;;;;;;;5.25;4.82;;;;;;;;;;5042727;28;20327;-52
2023/04/24 05:05:07;;;;;;;5.32;4.82;;;;;;;;;;5040082;28;20228;-55
2023/04/24 05:07:35;;;;;;;5.13;4.63;;;;;;;;;;5038733;28;20313;-51
2023/04/24 05:10:02;;;;;;;5.30;4.90;;;;;;;;;;5035507;28;20225;-53
2023/04/24 05:12:28;;;;;;;4.88;4.47;;;;;;;;;;5041329;28;20394;-52
2023/04/24 05:14:55;;;;;;;6.47;5.28;;;;;;;;;;5044315;28;20537;-52
2023/04/24 05:17:22;;;;;;;4.75;4.35;;;;;;;;;;5039328;28;20232;-54
2023/04/24 05:19:48;;;;;;;5.20;4.55;;;;;;;;;;5042713;28;20251;-50
2023/04/24 05:22:15;;;;;;;5.93;4.70;;;;;;;;;;5043059;28;20323;-51
2023/04/24 05:24:43;;;;;;;4.55;4.15;;;;;;;;;;5042325;28;20331;-51
2023/04/24 05:27:09;;;;;;;4.72;4.30;;;;;;;;;;5041291;28;20223;-52
2023/04/24 05:29:36;;;;;;;4.65;4.15;;;;;;;;;;5040191;28;20239;-51
2023/04/24 05:32:03;;;;;;;4.90;4.15;;;;;;;;;;5043650;28;20240;-51
2023/04/24 05:34:29;;;;;;;4.75;3.78;;;;;;;;;;5043347;28;20227;-52
2023/04/24 05:36:56;;;;;;;3.83;3.53;;;;;;;;;;5043332;28;20251;-51
2023/04/24 05:39:24;;;;;;;4.40;4.00;;;;;;;;;;5042748;28;20864;-52
2023/04/24 05:41:52;;;;;;;4.25;3.85;;;;;;;;;;5040969;28;20249;-50
2023/04/24 05:44:19;;;;;;;4.30;3.90;;;;;;;;;;5049334;28;21018;-51
2023/04/24 05:46:45;;;;;;;3.42;3.13;;;;;;;;;;5044058;28;20266;-52
2023/04/24 05:49:12;;;;;;;3.75;3.35;;;;;;;;;;5041933;28;20255;-50
2023/04/24 05:51:39;;;;;;;3.53;3.22;;;;;;;;;;5042383;28;20244;-52
2023/04/24 05:54:05;;;;;;;3.60;3.30;;;;;;;;;;5041144;28;20319;-52
2023/04/24 05:56:32;;;;;;;4.03;3.30;;;;;;;;;;5045067;28;20657;-51
2023/04/24 05:59:00;;;;;;;5.03;3.55;;;;;;;;;;5040947;28;20232;-55
2023/04/24 06:01:27;;;;;;;3.63;3.33;;;;;;;;;;5040099;28;20789;-52
2023/04/24 06:03:53;;;;;;;3.55;3.25;;;;;;;;;;5042321;28;20714;-52
2023/04/24 06:06:20;;;;;;;4.82;2.28;;;;;;;;;;5041747;28;20285;-51
2023/04/24 06:08:47;;;;;;;2.90;2.70;;;;;;;;;;5040198;28;20347;-50
2023/04/24 06:11:14;;;;;;;3.80;2.38;;;;;;;;;;5042249;28;20235;-51
2023/04/24 06:13:40;;;;;;;2.53;2.33;;;;;;;;;;5046156;28;20236;-51
2023/04/24 06:16:09;;;;;;;3.28;2.70;;;;;;;;;;5045733;28;20242;-53
2023/04/24 06:18:35;;;;;;;2.53;2.33;;;;;;;;;;5044030;28;20255;-52
2023/04/24 06:21:02;;;;;;;2.05;1.88;;;;;;;;;;5044873;28;20306;-52
2023/04/24 06:23:29;;;;;;;2.03;1.70;;;;;;;;;;5046956;28;20243;-52
2023/04/24 06:25:55;;;;;;;3.17;2.05;;;;;;;;;;5045309;28;20236;-51
2023/04/24 06:28:22;;;;;;;2.38;2.17;;;;;;;;;;5041409;28;20228;-52
2023/04/24 06:30:48;;;;;;;4.43;2.10;;;;;;;;;;5044536;28;20251;-50
2023/04/24 06:33:16;;;;;;;2.17;1.90;;;;;;;;;;5043167;28;20227;-51
2023/04/24 06:35:43;;;;;;;2.40;1.75;;;;;;;;;;5046093;28;20232;-51
2023/04/24 06:38:10;;;;;;;2.33;1.95;;;;;;;;;;5044188;28;20716;-50
2023/04/24 06:40:36;;;;;;;5.22;4.05;;;;;;;;;;5045804;28;21004;-52
2023/04/24 06:43:03;;;;;;;1.77;1.67;;;;;;;;;;5045027;28;20297;-53
2023/04/24 06:45:30;;;;;;;1.40;1.30;;;;;;;;;;5046129;28;20235;-53
2023/04/24 06:47:57;;;;;;;1.85;1.30;;;;;;;;;;5041949;28;20426;-52
2023/04/24 06:50:25;;;;;;;10.52;1.60;;;;;;;;;;5042871;28;20239;-51
2023/04/24 06:52:52;;;;;;;1.77;1.67;;;;;;;;;;5044311;28;20611;-52
2023/04/24 06:55:18;;;;;;;2.42;1.33;;;;;;;;;;5045840;28;20970;-52
2023/04/24 06:57:45;;;;;;;6.70;2.35;;;;;;;;;;5044478;28;20242;-52
2023/04/24 07:00:12;;;;;;;1.33;1.23;;;;;;;;;;5045410;28;20255;-52
2023/04/24 07:02:39;;;;;;;0.93;0.93;;;;;;;;;;5045721;28;20236;-52
2023/04/24 07:05:06;;;;;;;1.10;1.00;;;;;;;;;;5041076;28;20232;-52
2023/04/24 07:07:34;;;;;;;3.70;1.50;;;;;;;;;;5042792;28;20234;-52
2023/04/24 07:10:01;;;;;;;1.00;0.80;;;;;;;;;;5047455;28;20224;-54
2023/04/24 07:12:27;;;;;;;1.85;0.80;;;;;;;;;;5051071;28;20451;-52
2023/04/24 07:14:54;;;;;;;0.73;0.73;;;;;;;;;;5050023;28;20258;-50
2023/04/24 07:17:20;;;;;;;2.38;1.00;;;;;;;;;;5050432;28;20780;-53
2023/04/24 07:19:47;;;;;;;0.80;0.80;;;;;;;;;;5046617;28;20236;-51
2023/04/24 07:22:16;;;;;;;1.45;1.15;;;;;;;;;;5050200;28;20240;-52
2023/04/24 07:24:44;;;;;;;0.90;0.60;;;;;;;;;;5047734;28;21166;-53
2023/04/24 07:27:11;;;;;;;1.00;0.60;;;;;;;;;;5051809;28;20795;-53
2023/04/24 07:29:38;;;;;;;1.30;0.90;;;;;;;;;;5053771;28;20232;-53
2023/04/24 07:32:04;;;;;;;2.55;1.02;;;;;;;;;;5054562;28;20658;-51
2023/04/24 07:34:31;;;;;;;1.95;0.70;;;;;;;;;;5054814;28;20232;-52
2023/04/24 07:36:58;;;;;;;0.65;0.65;;;;;;;;;;5050742;28;20247;-52
2023/04/24 07:39:24;;;;;;;0.40;0.40;;;;;;;;;;5056146;28;20262;-51
2023/04/24 07:41:52;;;;;;;0.65;0.63;;;;;;;;;;5050357;28;20301;-52
2023/04/24 07:44:19;;;;;;;1.15;0.68;;;;;;;;;;5050378;28;20251;-50
2023/04/24 07:46:45;;;;;;;0.75;0.68;;;;;;;;;;5054161;28;20236;-52
2023/04/24 07:49:12;;;;;;;1.13;0.52;;;;;;;;;;5052896;28;20232;-52
2023/04/24 07:51:39;;;;;;;0.57;0.57;;;;;;;;;;5052616;28;20239;-51
2023/04/24 07:54:06;;;;;;;1.13;1.02;;;;;;;;;;5053224;28;20227;-54
2023/04/24 07:56:33;;;;;;;0.88;0.63;;;;;;;;;;5047827;28;20232;-52
2023/04/24 07:59:01;;;;;;;1.27;1.13;;;;;;;;;;5040920;28;20241;-52
2023/04/24 08:01:28;;;;;;;1.00;0.90;;;;;;;;;;5045085;28;20232;-53
2023/04/24 08:03:55;;;;;;;2.97;0.80;;;;;;;;;;5046251;28;20293;-52
2023/04/24 08:06:21;;;;;;;0.80;0.73;;;;;;;;;;5044788;28;20243;-51
2023/04/24 08:08:48;;;;;;;0.50;0.50;;;;;;;;;;5043692;28;20286;-52
2023/04/24 08:11:14;;;;;;;0.63;0.60;;;;;;;;;;5041578;28;20259;-51
2023/04/24 08:13:41;;;;;;;1.10;0.80;;;;;;;;;;5044280;28;20590;-52
2023/04/24 08:16:09;;;;;;;1.95;1.20;;;;;;;;;;5042888;28;20232;-52
2023/04/24 08:18:35;;;;;;;24.02;18.60;;;;;;;;;;5038608;28;20233;-53
2023/04/24 08:21:02;;;;;;;0.98;0.70;;;;;;;;;;5043152;28;20285;-52
2023/04/24 08:23:29;;;;;;;0.80;0.70;;;;;;;;;;5043602;28;20240;-53
2023/04/24 08:25:56;;;;;;;1.27;0.80;;;;;;;;;;5044414;28;20783;-52
2023/04/24 08:28:22;;;;;;;1.35;0.93;;;;;;;;;;5041478;28;20239;-52
2023/04/24 08:30:54;;;;;;;1.23;0.98;;;;;;;;;;5045684;28;20744;-52
2023/04/24 08:33:22;;;;;;;2.97;0.88;;;;;;;;;;5045338;28;20546;-52
2023/04/24 08:35:48;;;;;;;1.25;0.55;;;;;;;;;;5045018;28;20272;-51
2023/04/24 08:38:15;;;;;;;0.57;0.57;;;;;;;;;;5044272;28;20285;-52
2023/04/24 08:40:42;;;;;;;2.67;0.98;;;;;;;;;;5040396;28;20742;-51
2023/04/24 08:43:09;;;;;;;1.30;0.80;;;;;;;;;;5041384;28;20258;-52
2023/04/24 08:45:35;;;;;;;0.80;0.80;;;;;;;;;;5043072;28;20231;-53
2023/04/24 08:48:03;;;;;;;1.00;0.90;;;;;;;;;;5045944;28;20232;-52
2023/04/24 08:50:32;;;;;;;0.85;0.57;;;;;;;;;;5044270;28;20240;-52
2023/04/24 08:52:59;;;;;;;0.55;0.55;;;;;;;;;;5035552;28;20320;-52
2023/04/24 08:55:26;;;;;;;0.68;0.68;;;;;;;;;;5042406;28;20242;-52
2023/04/24 08:57:54;;;;;;;1.08;0.75;;;;;;;;;;5035040;28;20228;-51
2023/04/24 09:00:21;;;;;;;0.63;0.63;;;;;;;;;;5032289;28;20236;-52
2023/04/24 09:02:49;;;;;;;1.80;0.80;;;;;;;;;;5038583;28;20243;-51
2023/04/24 09:05:17;;;;;;;0.88;0.88;;;;;;;;;;5038713;28;20238;-49
2023/04/24 09:07:46;;;;;;;0.68;0.68;;;;;;;;;;5035124;28;20251;-52
2023/04/24 09:10:12;;;;;;;1.30;0.77;;;;;;;;;;5045750;28;20236;-53
2023/04/24 09:12:39;;;;;;;0.73;0.73;;;;;;;;;;5039795;28;20624;-52
2023/04/24 09:15:08;;;;;;;1.02;0.70;;;;;;;;;;5041990;28;20236;-51
2023/04/24 09:17:35;;;;;;;1.27;0.60;;;;;;;;;;5036909;28;20232;-51
2023/04/24 09:20:02;;;;;;;0.57;0.57;;;;;;;;;;5043265;28;20224;-54
2023/04/24 09:22:30;;;;;;;0.40;0.40;;;;;;;;;;5040090;28;20236;-53
2023/04/24 09:25:02;;;;;;;1.25;0.70;;;;;;;;;;5037229;28;20239;-52
2023/04/24 09:27:29;;;;;;;0.80;0.73;;;;;;;;;;5038865;28;20706;-52
2023/04/24 09:29:56;;;;;;;3.58;0.95;;;;;;;;;;5042647;28;20301;-52
2023/04/24 09:32:24;;;;;;;1.95;0.70;;;;;;;;;;5033649;28;20262;-51
2023/04/24 09:35:05;;;;;;;0.70;0.70;;;;;;;;;;5039525;28;20646;-53
2023/04/24 09:37:35;;;;;;;2.72;1.00;;;;;;;;;;5040966;28;20227;-53
2023/04/24 09:40:10;;;;;;;2.47;0.60;;;;;;;;;;5042356;28;20238;-55
2023/04/24 09:42:37;;;;;;;0.77;0.65;;;;;;;;;;5035466;28;20250;-54
2023/04/24 09:45:04;;;;;;;0.80;0.80;;;;;;;;;;5043330;28;20251;-51
2023/04/24 09:47:36;;;;;;;2.08;0.93;;;;;;;;;;5042071;28;21051;-51
2023/04/24 09:50:10;;;;;;;0.75;0.75;;;;;;;;;;5038020;28;20231;-51
2023/04/24 09:52:36;;;;;;;1.20;0.70;;;;;;;;;;5038861;28;20237;-52
2023/04/24 09:55:03;;;;;;;1.80;0.90;;;;;;;;;;5046230;28;20285;-51
2023/04/24 09:57:32;;;;;;;0.70;0.70;;;;;;;;;;5032499;28;20302;-53
2023/04/24 09:59:58;;;;;;;1.10;0.95;;;;;;;;;;5038162;28;20805;-52
2023/04/24 10:02:25;;;;;;;2.40;0.95;;;;;;;;;;5048362;28;20236;-52
2023/04/24 10:04:56;;;;;;;0.65;0.65;;;;;;;;;;5047197;28;20236;-52
2023/04/24 10:07:22;;;;;;;0.90;0.90;;;;;;;;;;5049950;28;20254;-55
2023/04/24 10:09:49;;;;;;;1.27;1.17;;;;;;;;;;5057550;28;20332;-52
2023/04/24 10:12:16;;;;;;;2.63;0.98;;;;;;;;;;5045773;28;20224;-53
2023/04/24 10:14:45;;;;;;;1.38;0.88;;;;;;;;;;5038804;28;20235;-51
2023/04/24 10:17:12;;;;;;;1.38;0.82;;;;;;;;;;5033192;28;20234;-51
2023/04/24 10:19:39;;;;;;;0.88;0.85;;;;;;;;;;5034207;28;20227;-51
2023/04/24 10:22:06;;;;;;;2.25;1.38;;;;;;;;;;5036954;28;20776;-52
2023/04/24 10:24:35;;;;;;;2.08;1.75;;;;;;;;;;5045348;28;20236;-52
2023/04/24 10:27:02;;;;;;;1.58;0.95;;;;;;;;;;5039475;28;20710;-52
2023/04/24 10:29:29;;;;;;;1.50;1.00;;;;;;;;;;5038089;28;23024;-52
2023/04/24 10:31:57;;;;;;;6.70;1.10;;;;;;;;;;5032214;28;20235;-52
2023/04/24 10:34:24;;;;;;;1.15;0.70;;;;;;;;;;5039263;28;20236;-51
2023/04/24 10:36:52;;;;;;;2.33;0.80;;;;;;;;;;5039328;28;20225;-52
2023/04/24 10:39:19;;;;;;;2.80;1.20;;;;;;;;;;5035544;28;20242;-51
2023/04/24 10:41:47;;;;;;;21.40;17.45;;;;;;;;;;5033462;28;20248;-53
2023/04/24 10:44:14;;;;;;;17.23;15.50;;;;;;;;;;5041100;28;20231;-53
2023/04/24 10:46:45;;;;;;;39.50;32.03;;;;;;;;;;5037559;28;20232;-53
2023/04/24 10:49:13;;;;;;;3.40;2.33;;;;;;;;;;5038506;28;20302;-50
2023/04/24 10:51:47;;;;;;;5.53;4.65;;;;;;;;;;5039812;28;20472;-52
2023/04/24 10:54:23;;;;;;;1.40;1.30;;;;;;;;;;5038863;28;20459;-53
2023/04/24 10:56:50;;;;;;;1.23;0.95;;;;;;;;;;5040986;28;20243;-51
2023/04/24 10:59:25;;;;;;;0.73;0.73;;;;;;;;;;5046042;28;20240;-51
2023/04/24 11:01:54;;;;;;;1.63;0.90;;;;;;;;;;5046857;28;20242;-52
2023/04/24 11:04:31;;;;;;;1.10;0.93;;;;;;;;;;5041708;28;20239;-51
2023/04/24 11:06:58;;;;;;;1.95;0.77;;;;;;;;;;5047247;28;20937;-55
2023/04/24 11:09:27;;;;;;;2.20;1.00;;;;;;;;;;5047365;28;20228;-51
2023/04/24 11:12:03;;;;;;;2.78;1.00;;;;;;;;;;5047353;28;20244;-53
2023/04/24 11:14:30;;;;;;;1.13;0.93;;;;;;;;;;5043762;28;20232;-51
2023/04/24 11:16:56;;;;;;;0.70;0.70;;;;;;;;;;5047536;28;20743;-52
2023/04/24 11:19:24;;;;;;;0.90;0.90;;;;;;;;;;5045140;28;20275;-53
2023/04/24 11:21:57;;;;;;;6.13;1.13;;;;;;;;;;5046199;28;20239;-53
2023/04/24 11:24:33;;;;;;;0.98;0.60;;;;;;;;;;5046214;28;20848;-53
2023/04/24 11:27:07;;;;;;;0.98;0.70;;;;;;;;;;5044009;28;20231;-53
2023/04/24 11:29:40;;;;;;;0.82;0.82;;;;;;;;;;5042562;28;20235;-53
2023/04/24 11:32:18;;;;;;;2.40;0.80;;;;;;;;;;5041188;28;20943;-55
2023/04/24 11:34:46;;;;;;;1.80;1.42;;;;;;;;;;5040144;28;20257;-52
2023/04/24 11:37:14;;;;;;;2.33;1.65;;;;;;;;;;5048799;28;20242;-50
2023/04/24 11:39:41;;;;;;;1.23;1.13;;;;;;;;;;5040335;28;20730;-52
2023/04/24 11:42:08;;;;;;;3.75;1.70;;;;;;;;;;5042266;28;20344;-52
2023/04/24 11:44:34;;;;;;;3.35;2.08;;;;;;;;;;5046455;28;20635;-52
2023/04/24 11:47:01;;;;;;;2.72;2.20;;;;;;;;;;5046154;28;20228;-51
2023/04/24 11:49:27;;;;;;;2.33;1.70;;;;;;;;;;5048299;28;20224;-51
2023/04/24 11:51:56;;;;;;;3.53;2.00;;;;;;;;;;5047729;28;20240;-51
2023/04/24 11:54:24;;;;;;;2.28;2.15;;;;;;;;;;5047700;28;20263;-52
2023/04/24 11:56:50;;;;;;;3.15;2.55;;;;;;;;;;5050238;28;20713;-52
2023/04/24 11:59:17;;;;;;;3.00;2.63;;;;;;;;;;5049188;28;20243;-56
2023/04/24 12:01:44;;;;;;;3.80;2.90;;;;;;;;;;5043106;28;20236;-53
2023/04/24 12:04:10;;;;;;;2.13;2.03;;;;;;;;;;5045186;28;20642;-55
2023/04/24 12:06:37;;;;;;;2.38;1.90;;;;;;;;;;5045586;28;20700;-56
2023/04/24 12:09:04;;;;;;;2.25;1.25;;;;;;;;;;5042935;28;20313;-57
2023/04/24 12:11:32;;;;;;;1.83;1.13;;;;;;;;;;5043967;28;20264;-55
2023/04/24 12:13:59;;;;;;;0.98;0.88;;;;;;;;;;5043134;28;20262;-54
2023/04/24 12:16:27;;;;;;;1.42;1.25;;;;;;;;;;5043561;28;20239;-52
2023/04/24 12:18:53;;;;;;;4.70;1.38;;;;;;;;;;5044617;28;20597;-53
2023/04/24 12:21:21;;;;;;;1.38;1.27;;;;;;;;;;5046264;28;20247;-53
2023/04/24 12:23:48;;;;;;;4.20;1.52;;;;;;;;;;5052730;28;20296;-57
2023/04/24 12:26:17;;;;;;;1.30;1.20;;;;;;;;;;5051624;28;20323;-51
2023/04/24 12:28:47;;;;;;;0.95;0.95;;;;;;;;;;5052159;28;20287;-52
2023/04/24 12:31:14;;;;;;;0.77;0.77;;;;;;;;;;5044271;28;20232;-52
2023/04/24 12:33:40;;;;;;;0.90;0.90;;;;;;;;;;5041150;28;20251;-54
2023/04/24 12:36:07;;;;;;;3.25;0.80;;;;;;;;;;5044015;28;20320;-51
2023/04/24 12:38:40;;;;;;;0.77;0.70;;;;;;;;;;5040945;28;20745;-52
2023/04/24 12:41:07;;;;;;;5.57;0.85;;;;;;;;;;5040681;28;21818;-51
2023/04/24 12:43:34;;;;;;;0.52;0.52;;;;;;;;;;5043641;28;20243;-52
2023/04/24 12:46:01;;;;;;;0.70;0.70;;;;;;;;;;5034507;28;20297;-52
2023/04/24 12:48:28;;;;;;;1.60;1.10;;;;;;;;;;5042715;28;20772;-52
2023/04/24 12:50:56;;;;;;;1.77;0.73;;;;;;;;;;5042764;28;20232;-52
2023/04/24 12:53:22;;;;;;;2.05;1.20;;;;;;;;;;5043541;28;20255;-52
2023/04/24 12:55:52;;;;;;;0.50;0.50;;;;;;;;;;5040373;28;20315;-52
2023/04/24 12:58:19;;;;;;;1.05;0.70;;;;;;;;;;5041929;28;20289;-50
2023/04/24 13:00:45;;;;;;;1.05;0.80;;;;;;;;;;5041975;28;20765;-51
2023/04/24 13:03:14;;;;;;;0.70;0.70;;;;;;;;;;5042538;28;20236;-50
2023/04/24 13:05:40;;;;;;;0.80;0.80;;;;;;;;;;5042689;28;20246;-51
2023/04/24 13:08:07;;;;;;;3.40;0.68;;;;;;;;;;5039799;28;20740;-51
2023/04/24 13:10:33;;;;;;;0.70;0.70;;;;;;;;;;5041917;28;20236;-51
2023/04/24 13:13:00;;;;;;;1.10;0.90;;;;;;;;;;5043688;28;20235;-52
2023/04/24 13:15:26;;;;;;;1.20;0.90;;;;;;;;;;5042726;28;20798;-52
2023/04/24 13:17:53;;;;;;;2.65;0.80;;;;;;;;;;5042702;28;20679;-51
2023/04/24 13:20:21;;;;;;;5.35;0.98;;;;;;;;;;5039696;28;20315;-51
2023/04/24 13:22:47;;;;;;;0.82;0.80;;;;;;;;;;5043833;28;20227;-51
2023/04/24 13:25:16;;;;;;;0.77;0.77;;;;;;;;;;5041705;28;20240;-51
2023/04/24 13:27:43;;;;;;;2.30;0.70;;;;;;;;;;5042606;28;20724;-52
2023/04/24 13:30:10;;;;;;;22.33;1.98;;;;;;;;;;5039907;28;20732;-52
2023/04/24 13:32:37;;;;;;;0.70;0.68;;;;;;;;;;5037038;28;20702;-51
2023/04/24 13:35:03;;;;;;;0.95;0.82;;;;;;;;;;5043655;28;20311;-51
2023/04/24 13:37:31;;;;;;;0.90;0.90;;;;;;;;;;5038665;28;20709;-51
2023/04/24 13:39:58;;;;;;;1.55;0.90;;;;;;;;;;5040505;28;20737;-52
2023/04/24 13:42:24;;;;;;;1.80;0.70;;;;;;;;;;5042655;28;20244;-52
2023/04/24 13:44:51;;;;;;;0.77;0.77;;;;;;;;;;5035885;28;20335;-53
2023/04/24 13:47:18;;;;;;;2.38;0.82;;;;;;;;;;5041069;28;20317;-52
2023/04/24 13:49:45;;;;;;;2.88;0.70;;;;;;;;;;5041181;28;20804;-49
2023/04/24 13:52:11;;;;;;;0.90;0.90;;;;;;;;;;5041820;28;20613;-51
2023/04/24 13:54:40;;;;;;;2.17;0.90;;;;;;;;;;5040767;28;20236;-52
2023/04/24 13:57:06;;;;;;;1.58;0.70;;;;;;;;;;5040341;28;20495;-51
2023/04/24 13:59:33;;;;;;;0.93;0.90;;;;;;;;;;5041824;28;20232;-51
2023/04/24 14:01:59;;;;;;;1.85;1.42;;;;;;;;;;5041821;28;20248;-52
2023/04/24 14:04:26;;;;;;;1.13;1.02;;;;;;;;;;5036189;28;20232;-51
2023/04/24 14:06:52;;;;;;;0.68;0.68;;;;;;;;;;5040158;28;20255;-51
2023/04/24 14:09:19;;;;;;;1.20;1.10;;;;;;;;;;5041778;28;20252;-52
2023/04/24 14:11:47;;;;;;;0.77;0.68;;;;;;;;;;5041947;28;20241;-51
2023/04/24 14:14:14;;;;;;;0.90;0.90;;;;;;;;;;5035987;28;20239;-52
2023/04/24 14:16:40;;;;;;;1.48;0.77;;;;;;;;;;5040365;28;20811;-52
2023/04/24 14:19:07;;;;;;;0.70;0.70;;;;;;;;;;5043890;28;20235;-50
2023/04/24 14:21:33;;;;;;;0.52;0.52;;;;;;;;;;5042848;28;20242;-52
2023/04/24 14:24:00;;;;;;;0.70;0.70;;;;;;;;;;5039674;28;20249;-53
2023/04/24 14:26:26;;;;;;;2.05;0.90;;;;;;;;;;5038857;28;20583;-52
2023/04/24 14:28:54;;;;;;;0.63;0.63;;;;;;;;;;5044295;28;20232;-51
2023/04/24 14:31:21;;;;;;;0.82;0.70;;;;;;;;;;5042871;28;20236;-52
2023/04/24 14:33:48;;;;;;;0.70;0.70;;;;;;;;;;5049034;28;20338;-60
2023/04/24 14:36:14;;;;;;;0.80;0.80;;;;;;;;;;5060050;28;20673;-52
2023/04/24 14:38:41;;;;;;;0.75;0.75;;;;;;;;;;5056571;28;20228;-52
2023/04/24 14:41:09;;;;;;;1.00;0.90;;;;;;;;;;5056086;28;20236;-52
2023/04/24 14:43:36;;;;;;;0.80;0.80;;;;;;;;;;5056114;28;20253;-56